createdAt,value
2022-12-22T00:00:02.864Z,3
2022-12-22T00:01:03.744Z,2
2022-12-22T00:02:03.983Z,2
2022-12-22T00:03:03.980Z,2
2022-12-22T00:04:03.842Z,2
2022-12-22T00:05:03.743Z,2
2022-12-22T00:06:04.501Z,2
2022-12-22T00:07:04.036Z,2
2022-12-22T00:08:03.740Z,2
2022-12-22T00:09:05.924Z,2
2022-12-22T00:10:04.013Z,2
2022-12-22T00:11:05.362Z,2
2022-12-22T00:12:03.847Z,2
2022-12-22T00:13:03.747Z,2
2022-12-22T00:14:04.475Z,3
2022-12-22T00:15:04.224Z,2
2022-12-22T00:16:03.730Z,2
2022-12-22T00:17:03.764Z,2
2022-12-22T00:18:04.127Z,2
2022-12-22T00:19:03.773Z,3
2022-12-22T00:20:03.742Z,2
2022-12-22T00:21:03.749Z,2
2022-12-22T00:22:03.762Z,2
2022-12-22T00:23:04.001Z,3
2022-12-22T00:24:04.456Z,2
2022-12-22T00:25:04.319Z,2
2022-12-22T00:26:04.391Z,2
2022-12-22T00:27:04.216Z,2
2022-12-22T00:28:03.744Z,1
2022-12-22T00:29:04.231Z,2
2022-12-22T00:30:04.428Z,2
2022-12-22T00:31:03.894Z,1
2022-12-22T00:32:04.278Z,2
2022-12-22T00:33:04.337Z,2
2022-12-22T00:34:03.725Z,2
2022-12-22T00:35:03.734Z,1
2022-12-22T00:36:03.744Z,2
2022-12-22T00:37:03.735Z,2
2022-12-22T00:38:03.921Z,2
2022-12-22T00:39:04.336Z,2
2022-12-22T00:40:03.783Z,2
2022-12-22T00:41:03.720Z,2
2022-12-22T00:42:03.751Z,2
2022-12-22T00:43:03.730Z,2
2022-12-22T00:44:04.576Z,2
2022-12-22T00:45:04.179Z,3
2022-12-22T00:46:03.812Z,1
2022-12-22T00:47:04.602Z,2
2022-12-22T00:48:03.755Z,2
2022-12-22T00:49:03.862Z,2
2022-12-22T00:50:03.864Z,2
2022-12-22T00:51:03.951Z,2
2022-12-22T00:52:04.555Z,1
2022-12-22T00:53:04.600Z,1
2022-12-22T00:54:04.172Z,3
2022-12-22T00:55:03.747Z,2
2022-12-22T00:56:04.418Z,2
2022-12-22T00:57:03.731Z,1
2022-12-22T00:58:03.746Z,2
2022-12-22T00:59:04.034Z,2
2022-12-22T01:00:03.744Z,2
2022-12-22T01:01:04.257Z,1
2022-12-22T01:02:04.062Z,2
2022-12-22T01:03:04.149Z,3
2022-12-22T01:04:04.253Z,1
2022-12-22T01:05:03.786Z,2
2022-12-22T01:06:04.282Z,2
2022-12-22T01:07:03.728Z,3
2022-12-22T01:08:03.741Z,1
2022-12-22T01:09:03.879Z,1
2022-12-22T01:10:04.250Z,1
2022-12-22T01:11:04.621Z,1
2022-12-22T01:12:03.937Z,3
2022-12-22T01:13:03.761Z,2
2022-12-22T01:14:04.138Z,2
2022-12-22T01:15:04.366Z,1
2022-12-22T01:16:03.964Z,1
2022-12-22T01:17:04.040Z,2
2022-12-22T01:18:03.720Z,1
2022-12-22T01:19:03.732Z,1
2022-12-22T01:20:03.947Z,2
2022-12-22T01:21:03.745Z,2
2022-12-22T01:22:04.194Z,1
2022-12-22T01:23:04.287Z,1
2022-12-22T01:24:04.405Z,1
2022-12-22T01:25:03.923Z,2
2022-12-22T01:26:04.395Z,1
2022-12-22T01:27:04.231Z,2
2022-12-22T01:28:04.339Z,1
2022-12-22T01:29:04.025Z,1
2022-12-22T01:30:02.568Z,1
2022-12-22T01:31:04.723Z,1
2022-12-22T01:32:03.759Z,1
2022-12-22T01:33:04.600Z,1
2022-12-22T01:34:04.208Z,1
2022-12-22T01:35:04.753Z,1
2022-12-22T01:36:04.199Z,1
2022-12-22T01:37:03.724Z,1
2022-12-22T01:38:04.023Z,1
2022-12-22T01:39:03.901Z,2
2022-12-22T01:40:04.323Z,1
2022-12-22T01:41:04.522Z,2
2022-12-22T01:42:04.342Z,3
2022-12-22T01:43:03.728Z,1
2022-12-22T01:44:03.737Z,1
2022-12-22T01:45:04.100Z,2
2022-12-22T01:46:03.760Z,2
2022-12-22T01:47:03.796Z,2
2022-12-22T01:48:04.626Z,1
2022-12-22T01:49:03.871Z,1
2022-12-22T01:50:03.727Z,1
2022-12-22T01:51:04.159Z,1
2022-12-22T01:52:03.731Z,1
2022-12-22T01:53:03.750Z,1
2022-12-22T01:54:03.736Z,1
2022-12-22T01:55:04.703Z,2
2022-12-22T01:56:03.762Z,3
2022-12-22T01:57:03.766Z,1
2022-12-22T01:58:04.396Z,2
2022-12-22T01:59:04.561Z,2
2022-12-22T02:00:03.821Z,1
2022-12-22T02:01:03.744Z,1
2022-12-22T02:02:04.519Z,1
2022-12-22T02:03:03.773Z,2
2022-12-22T02:04:03.742Z,1
2022-12-22T02:05:03.751Z,4
2022-12-22T02:06:03.759Z,1
2022-12-22T02:07:04.556Z,2
2022-12-22T02:08:03.727Z,1
2022-12-22T02:09:03.766Z,1
2022-12-22T02:10:04.557Z,2
2022-12-22T02:11:04.582Z,1
2022-12-22T02:12:03.798Z,2
2022-12-22T02:13:03.772Z,2
2022-12-22T02:14:03.755Z,1
2022-12-22T02:15:04.352Z,1
2022-12-22T02:16:04.171Z,1
2022-12-22T02:17:03.738Z,1
2022-12-22T02:18:03.939Z,2
2022-12-22T02:19:03.718Z,1
2022-12-22T02:20:04.520Z,1
2022-12-22T02:21:03.731Z,1
2022-12-22T02:22:04.174Z,1
2022-12-22T02:23:03.771Z,1
2022-12-22T02:24:03.734Z,1
2022-12-22T02:25:03.773Z,2
2022-12-22T02:26:03.721Z,2
2022-12-22T02:27:04.401Z,1
2022-12-22T02:28:04.294Z,3
2022-12-22T02:29:04.488Z,2
2022-12-22T02:30:03.788Z,1
2022-12-22T02:31:03.821Z,2
2022-12-22T02:32:03.754Z,3
2022-12-22T02:33:09.598Z,1
2022-12-22T02:34:04.298Z,3
2022-12-22T02:35:04.419Z,1
2022-12-22T02:36:03.951Z,2
2022-12-22T02:37:04.434Z,1
2022-12-22T02:38:03.722Z,2
2022-12-22T02:39:03.767Z,2
2022-12-22T02:40:03.755Z,2
2022-12-22T02:41:03.736Z,1
2022-12-22T02:42:03.724Z,2
2022-12-22T02:43:04.010Z,1
2022-12-22T02:44:03.746Z,1
2022-12-22T02:45:03.740Z,3
2022-12-22T02:46:04.363Z,3
2022-12-22T02:47:03.811Z,3
2022-12-22T02:48:03.763Z,1
2022-12-22T02:49:04.718Z,1
2022-12-22T02:50:03.855Z,2
2022-12-22T02:51:03.752Z,2
2022-12-22T02:52:04.095Z,1
2022-12-22T02:53:03.733Z,2
2022-12-22T02:54:04.343Z,1
2022-12-22T02:55:03.735Z,1
2022-12-22T02:56:04.246Z,2
2022-12-22T02:57:03.902Z,3
2022-12-22T02:58:03.739Z,2
2022-12-22T02:59:02.586Z,2
2022-12-22T03:00:03.808Z,1
2022-12-22T03:01:03.730Z,1
2022-12-22T03:02:04.111Z,1
2022-12-22T03:03:04.757Z,1
2022-12-22T03:04:03.739Z,2
2022-12-22T03:05:04.197Z,1
2022-12-22T03:06:03.824Z,2
2022-12-22T03:07:03.801Z,1
2022-12-22T03:08:08.278Z,2
2022-12-22T03:09:03.773Z,1
2022-12-22T03:10:04.713Z,2
2022-12-22T03:11:04.516Z,1
2022-12-22T03:12:03.734Z,1
2022-12-22T03:13:03.744Z,1
2022-12-22T03:14:04.382Z,2
2022-12-22T03:15:04.118Z,2
2022-12-22T03:16:03.867Z,2
2022-12-22T03:17:03.993Z,1
2022-12-22T03:18:04.071Z,1
2022-12-22T03:19:04.342Z,2
2022-12-22T03:20:03.740Z,1
2022-12-22T03:21:04.635Z,1
2022-12-22T03:22:02.574Z,2
2022-12-22T03:23:03.794Z,4
2022-12-22T03:24:04.150Z,2
2022-12-22T03:25:03.845Z,1
2022-12-22T03:26:03.733Z,1
2022-12-22T03:27:04.165Z,1
2022-12-22T03:28:03.740Z,2
2022-12-22T03:29:03.731Z,1
2022-12-22T03:30:04.284Z,1
2022-12-22T03:31:04.434Z,1
2022-12-22T03:32:04.470Z,1
2022-12-22T03:33:03.741Z,2
2022-12-22T03:34:04.531Z,1
2022-12-22T03:35:04.454Z,2
2022-12-22T03:36:03.754Z,3
2022-12-22T03:37:04.165Z,1
2022-12-22T03:38:03.888Z,1
2022-12-22T03:39:03.864Z,1
2022-12-22T03:40:03.765Z,1
2022-12-22T03:41:03.899Z,1
2022-12-22T03:42:03.934Z,1
2022-12-22T03:43:04.045Z,1
2022-12-22T03:44:02.713Z,1
2022-12-22T03:45:04.143Z,1
2022-12-22T03:46:02.558Z,2
2022-12-22T03:47:03.798Z,2
2022-12-22T03:48:03.756Z,2
2022-12-22T03:49:03.784Z,4
2022-12-22T03:50:04.030Z,1
2022-12-22T03:51:03.740Z,2
2022-12-22T03:52:03.742Z,2
2022-12-22T03:53:04.226Z,2
2022-12-22T03:54:03.777Z,1
2022-12-22T03:55:04.562Z,2
2022-12-22T03:56:07.823Z,1
2022-12-22T03:57:03.847Z,2
2022-12-22T03:58:03.730Z,1
2022-12-22T03:59:03.736Z,1
2022-12-22T04:00:03.729Z,1
2022-12-22T04:01:04.440Z,2
2022-12-22T04:02:04.842Z,1
2022-12-22T04:03:03.857Z,3
2022-12-22T04:04:03.737Z,3
2022-12-22T04:05:04.617Z,1
2022-12-22T04:06:04.506Z,1
2022-12-22T04:07:04.200Z,1
2022-12-22T04:08:03.070Z,1
2022-12-22T04:09:03.838Z,2
2022-12-22T04:10:03.933Z,2
2022-12-22T04:11:03.763Z,1
2022-12-22T04:12:03.881Z,2
2022-12-22T04:13:03.726Z,2
2022-12-22T04:14:03.762Z,3
2022-12-22T04:15:04.176Z,1
2022-12-22T04:16:04.202Z,1
2022-12-22T04:17:03.733Z,1
2022-12-22T04:18:03.764Z,2
2022-12-22T04:19:03.842Z,2
2022-12-22T04:20:03.754Z,2
2022-12-22T04:21:03.779Z,1
2022-12-22T04:22:03.756Z,2
2022-12-22T04:23:03.797Z,1
2022-12-22T04:24:03.729Z,1
2022-12-22T04:25:03.758Z,2
2022-12-22T04:26:04.212Z,2
2022-12-22T04:27:03.724Z,1
2022-12-22T04:28:04.223Z,2
2022-12-22T04:29:03.987Z,4
2022-12-22T04:30:03.814Z,2
2022-12-22T04:31:04.448Z,2
2022-12-22T04:32:04.035Z,1
2022-12-22T04:33:04.273Z,1
2022-12-22T04:34:03.729Z,1
2022-12-22T04:35:03.835Z,1
2022-12-22T04:36:03.758Z,2
2022-12-22T04:37:12.966Z,1
2022-12-22T04:38:03.736Z,1
2022-12-22T04:39:04.070Z,2
2022-12-22T04:40:04.003Z,1
2022-12-22T04:41:03.758Z,1
2022-12-22T04:42:03.745Z,3
2022-12-22T04:43:04.329Z,1
2022-12-22T04:44:03.792Z,1
2022-12-22T04:45:04.066Z,1
2022-12-22T04:46:04.233Z,4
2022-12-22T04:47:03.723Z,1
2022-12-22T04:48:04.001Z,2
2022-12-22T04:49:04.356Z,2
2022-12-22T04:50:03.733Z,1
2022-12-22T04:51:04.682Z,1
2022-12-22T04:52:03.716Z,1
2022-12-22T04:53:03.975Z,2
2022-12-22T04:54:04.036Z,1
2022-12-22T04:55:04.457Z,1
2022-12-22T04:56:04.494Z,1
2022-12-22T04:57:04.669Z,1
2022-12-22T04:58:03.959Z,1
2022-12-22T04:59:03.760Z,1
2022-12-22T05:00:03.806Z,2
2022-12-22T05:01:04.129Z,2
2022-12-22T05:02:03.826Z,1
2022-12-22T05:03:04.601Z,2
2022-12-22T05:04:04.225Z,2
2022-12-22T05:05:03.747Z,2
2022-12-22T05:06:03.777Z,1
2022-12-22T05:07:04.453Z,1
2022-12-22T05:08:03.829Z,1
2022-12-22T05:09:03.738Z,2
2022-12-22T05:10:04.481Z,1
2022-12-22T05:11:03.761Z,1
2022-12-22T05:12:03.777Z,1
2022-12-22T05:13:04.093Z,1
2022-12-22T05:14:07.422Z,1
2022-12-22T05:15:04.644Z,1
2022-12-22T05:16:04.623Z,1
2022-12-22T05:17:04.549Z,1
2022-12-22T05:18:03.746Z,2
2022-12-22T05:19:04.535Z,1
2022-12-22T05:20:04.421Z,1
2022-12-22T05:21:03.755Z,1
2022-12-22T05:22:04.713Z,1
2022-12-22T05:23:04.415Z,1
2022-12-22T05:24:03.741Z,3
2022-12-22T05:25:03.735Z,1
2022-12-22T05:26:04.001Z,1
2022-12-22T05:27:03.904Z,1
2022-12-22T05:28:04.187Z,1
2022-12-22T05:29:03.747Z,2
2022-12-22T05:30:03.753Z,1
2022-12-22T05:31:04.301Z,1
2022-12-22T05:32:03.803Z,1
2022-12-22T05:33:03.786Z,1
2022-12-22T05:34:04.245Z,2
2022-12-22T05:35:03.825Z,1
2022-12-22T05:36:03.746Z,1
2022-12-22T05:37:03.747Z,1
2022-12-22T05:38:03.724Z,1
2022-12-22T05:39:04.224Z,1
2022-12-22T05:40:03.751Z,1
2022-12-22T05:41:04.865Z,1
2022-12-22T05:42:03.730Z,1
2022-12-22T05:43:03.761Z,1
2022-12-22T05:44:04.376Z,1
2022-12-22T05:45:04.134Z,1
2022-12-22T05:46:03.806Z,2
2022-12-22T05:47:03.759Z,1
2022-12-22T05:48:04.416Z,1
2022-12-22T05:49:03.777Z,1
2022-12-22T05:50:03.750Z,2
2022-12-22T05:51:03.777Z,3
2022-12-22T05:52:04.541Z,4
2022-12-22T05:53:03.743Z,5
2022-12-22T05:54:04.034Z,2
2022-12-22T05:55:03.742Z,4
2022-12-22T05:56:03.740Z,7
2022-12-22T05:57:04.107Z,5
2022-12-22T05:58:03.784Z,8
2022-12-22T05:59:03.736Z,5
2022-12-22T06:00:03.804Z,3
2022-12-22T06:01:03.870Z,1
2022-12-22T06:02:03.899Z,1
2022-12-22T06:03:03.853Z,3
2022-12-22T06:04:04.484Z,1
2022-12-22T06:05:03.770Z,1
2022-12-22T06:06:03.789Z,1
2022-12-22T06:07:03.734Z,1
2022-12-22T06:08:03.727Z,2
2022-12-22T06:09:04.444Z,2
2022-12-22T06:10:09.776Z,1
2022-12-22T06:11:03.894Z,1
2022-12-22T06:12:04.063Z,1
2022-12-22T06:13:03.920Z,1
2022-12-22T06:14:04.328Z,1
2022-12-22T06:15:03.818Z,1
2022-12-22T06:16:03.877Z,1
2022-12-22T06:17:03.851Z,1
2022-12-22T06:18:03.744Z,2
2022-12-22T06:19:04.404Z,2
2022-12-22T06:20:03.778Z,3
2022-12-22T06:21:04.419Z,2
2022-12-22T06:22:03.731Z,1
2022-12-22T06:23:04.421Z,2
2022-12-22T06:24:03.742Z,3
2022-12-22T06:25:03.711Z,1
2022-12-22T06:26:03.746Z,2
2022-12-22T06:27:04.748Z,4
2022-12-22T06:28:03.936Z,1
2022-12-22T06:29:03.735Z,1
2022-12-22T06:30:04.495Z,1
2022-12-22T06:31:03.818Z,1
2022-12-22T06:32:04.382Z,2
2022-12-22T06:33:04.155Z,2
2022-12-22T06:34:04.435Z,3
2022-12-22T06:35:03.836Z,3
2022-12-22T06:36:03.788Z,3
2022-12-22T06:37:04.408Z,4
2022-12-22T06:38:03.727Z,3
2022-12-22T06:39:04.241Z,3
2022-12-22T06:40:03.890Z,5
2022-12-22T06:41:03.917Z,6
2022-12-22T06:42:03.728Z,4
2022-12-22T06:43:08.803Z,4
2022-12-22T06:44:04.196Z,4
2022-12-22T06:45:03.768Z,4
2022-12-22T06:46:03.798Z,6
2022-12-22T06:47:03.125Z,6
2022-12-22T06:48:04.416Z,4
2022-12-22T06:49:03.784Z,4
2022-12-22T06:50:03.750Z,3
2022-12-22T06:51:03.773Z,3
2022-12-22T06:52:04.520Z,3
2022-12-22T06:53:03.739Z,3
2022-12-22T06:54:06.141Z,4
2022-12-22T06:55:04.690Z,2
2022-12-22T06:56:04.183Z,4
2022-12-22T06:57:03.764Z,2
2022-12-22T06:58:03.768Z,4
2022-12-22T06:59:03.867Z,4
2022-12-22T07:00:04.476Z,5
2022-12-22T07:01:03.773Z,4
2022-12-22T07:02:03.918Z,4
2022-12-22T07:03:03.863Z,6
2022-12-22T07:04:04.090Z,3
2022-12-22T07:05:04.412Z,3
2022-12-22T07:06:03.777Z,4
2022-12-22T07:07:03.753Z,2
2022-12-22T07:08:08.887Z,2
2022-12-22T07:09:02.549Z,4
2022-12-22T07:10:04.435Z,3
2022-12-22T07:11:04.306Z,2
2022-12-22T07:12:04.336Z,2
2022-12-22T07:13:04.351Z,4
2022-12-22T07:14:03.764Z,2
2022-12-22T07:15:04.473Z,2
2022-12-22T07:16:03.889Z,3
2022-12-22T07:17:03.748Z,3
2022-12-22T07:18:03.775Z,3
2022-12-22T07:19:04.420Z,14
2022-12-22T07:20:03.894Z,202
2022-12-22T07:21:04.313Z,172
2022-12-22T07:22:04.767Z,608
2022-12-22T07:23:03.747Z,837
2022-12-22T07:24:04.184Z,823
2022-12-22T07:25:04.306Z,763
2022-12-22T07:26:04.461Z,732
2022-12-22T07:27:03.750Z,756
2022-12-22T07:28:04.708Z,961
2022-12-22T07:29:04.132Z,860
2022-12-22T07:30:03.774Z,699
2022-12-22T07:31:04.859Z,771
2022-12-22T07:32:02.814Z,754
2022-12-22T07:33:04.059Z,567
2022-12-22T07:34:04.157Z,409
2022-12-22T07:35:05.850Z,175
2022-12-22T07:36:03.862Z,66
2022-12-22T07:37:03.759Z,27
2022-12-22T07:38:04.933Z,92
2022-12-22T07:39:03.734Z,51
2022-12-22T07:40:04.163Z,64
2022-12-22T07:41:05.464Z,92
2022-12-22T07:42:03.760Z,326
2022-12-22T07:43:04.255Z,200
2022-12-22T07:44:03.745Z,513
2022-12-22T07:45:04.239Z,513
2022-12-22T07:46:04.191Z,751
2022-12-22T07:47:03.848Z,775
2022-12-22T07:48:03.799Z,862
2022-12-22T07:49:03.996Z,871
2022-12-22T07:50:03.717Z,1134
2022-12-22T07:51:04.397Z,1230
2022-12-22T07:52:03.732Z,1145
2022-12-22T07:53:03.793Z,1214
2022-12-22T07:54:03.075Z,1190
2022-12-22T07:55:04.190Z,1297
2022-12-22T07:56:04.629Z,1394
2022-12-22T07:57:03.768Z,1289
2022-12-22T07:58:03.787Z,1349
2022-12-22T07:59:03.810Z,1367
2022-12-22T08:00:03.935Z,1398
2022-12-22T08:01:04.155Z,1359
2022-12-22T08:02:04.629Z,1563
2022-12-22T08:03:04.605Z,1517
2022-12-22T08:04:04.212Z,1278
2022-12-22T08:05:04.289Z,1544
2022-12-22T08:06:03.761Z,1360
2022-12-22T08:07:03.750Z,1068
2022-12-22T08:08:04.051Z,1266
2022-12-22T08:09:03.800Z,1162
2022-12-22T08:10:04.570Z,1085
2022-12-22T08:11:03.731Z,1243
2022-12-22T08:12:04.092Z,1231
2022-12-22T08:13:03.786Z,1233
2022-12-22T08:14:03.744Z,1250
2022-12-22T08:15:04.461Z,1326
2022-12-22T08:16:03.825Z,1298
2022-12-22T08:17:03.969Z,1263
2022-12-22T08:18:04.355Z,1303
2022-12-22T08:19:03.717Z,1134
2022-12-22T08:20:04.096Z,1197
2022-12-22T08:21:04.393Z,1135
2022-12-22T08:22:04.746Z,1096
2022-12-22T08:23:04.438Z,1085
2022-12-22T08:24:03.951Z,1115
2022-12-22T08:25:03.974Z,1108
2022-12-22T08:26:04.535Z,1164
2022-12-22T08:27:03.738Z,1275
2022-12-22T08:28:03.743Z,1351
2022-12-22T08:29:04.346Z,1169
2022-12-22T08:30:03.931Z,1283
2022-12-22T08:31:03.886Z,1403
2022-12-22T08:32:03.897Z,1343
2022-12-22T08:33:03.988Z,1305
2022-12-22T08:34:03.745Z,1187
2022-12-22T08:35:04.047Z,1507
2022-12-22T08:36:08.098Z,1283
2022-12-22T08:37:04.473Z,1349
2022-12-22T08:38:03.717Z,1325
2022-12-22T08:39:03.741Z,1404
2022-12-22T08:40:03.789Z,1445
2022-12-22T08:41:04.035Z,1007
2022-12-22T08:42:03.720Z,1084
2022-12-22T08:43:04.127Z,1204
2022-12-22T08:44:03.730Z,1192
2022-12-22T08:45:04.124Z,1181
2022-12-22T08:46:03.742Z,1312
2022-12-22T08:47:04.352Z,1360
2022-12-22T08:48:04.244Z,1397
2022-12-22T08:49:04.350Z,1359
2022-12-22T08:50:03.749Z,1476
2022-12-22T08:51:03.722Z,1382
2022-12-22T08:52:03.747Z,1560
2022-12-22T08:53:03.740Z,1555
2022-12-22T08:54:05.865Z,1507
2022-12-22T08:55:04.218Z,1638
2022-12-22T08:56:03.727Z,1718
2022-12-22T08:57:04.020Z,1805
2022-12-22T08:58:04.425Z,1731
2022-12-22T08:59:04.444Z,1636
2022-12-22T09:00:04.142Z,1598
2022-12-22T09:01:03.120Z,1248
2022-12-22T09:02:03.935Z,1160
2022-12-22T09:03:03.888Z,1264
2022-12-22T09:04:03.774Z,1126
2022-12-22T09:05:03.745Z,857
2022-12-22T09:06:03.768Z,191
2022-12-22T09:07:04.520Z,93
2022-12-22T09:08:03.720Z,109
2022-12-22T09:09:04.525Z,218
2022-12-22T09:10:04.412Z,717
2022-12-22T09:11:03.718Z,906
2022-12-22T09:12:04.158Z,809
2022-12-22T09:13:04.383Z,927
2022-12-22T09:14:04.249Z,1000
2022-12-22T09:15:03.918Z,374
2022-12-22T09:16:03.814Z,117
2022-12-22T09:17:04.335Z,477
2022-12-22T09:18:04.419Z,313
2022-12-22T09:19:03.892Z,668
2022-12-22T09:20:04.555Z,474
2022-12-22T09:21:03.741Z,171
2022-12-22T09:22:03.990Z,1015
2022-12-22T09:23:04.205Z,65
2022-12-22T09:24:02.580Z,87
2022-12-22T09:25:03.742Z,97
2022-12-22T09:26:04.379Z,70
2022-12-22T09:27:03.736Z,99
2022-12-22T09:28:03.724Z,114
2022-12-22T09:29:04.088Z,186
2022-12-22T09:30:03.744Z,220
2022-12-22T09:31:03.772Z,110
2022-12-22T09:32:03.807Z,166
2022-12-22T09:33:03.960Z,227
2022-12-22T09:34:03.739Z,178
2022-12-22T09:35:04.023Z,99
2022-12-22T09:36:03.720Z,192
2022-12-22T09:37:04.123Z,318
2022-12-22T09:38:03.731Z,100
2022-12-22T09:39:04.211Z,561
2022-12-22T09:40:03.737Z,202
2022-12-22T09:41:03.759Z,748
2022-12-22T09:42:04.224Z,915
2022-12-22T09:43:04.271Z,79
2022-12-22T09:44:04.188Z,186
2022-12-22T09:45:03.783Z,69
2022-12-22T09:46:04.450Z,186
2022-12-22T09:47:03.719Z,248
2022-12-22T09:48:04.195Z,258
2022-12-22T09:49:04.473Z,150
2022-12-22T09:50:03.769Z,195
2022-12-22T09:51:04.214Z,238
2022-12-22T09:52:03.731Z,273
2022-12-22T09:53:03.736Z,268
2022-12-22T09:54:04.538Z,244
2022-12-22T09:55:03.712Z,86
2022-12-22T09:56:04.144Z,94
2022-12-22T09:57:03.904Z,94
2022-12-22T09:58:03.776Z,97
2022-12-22T09:59:03.745Z,128
2022-12-22T10:00:04.753Z,95
2022-12-22T10:01:04.422Z,146
2022-12-22T10:02:04.442Z,152
2022-12-22T10:03:03.798Z,80
2022-12-22T10:04:04.513Z,101
2022-12-22T10:05:03.946Z,119
2022-12-22T10:06:04.259Z,108
2022-12-22T10:07:04.180Z,122
2022-12-22T10:08:03.737Z,141
2022-12-22T10:09:05.808Z,98
2022-12-22T10:10:03.719Z,95
2022-12-22T10:11:03.798Z,74
2022-12-22T10:12:03.720Z,110
2022-12-22T10:13:03.900Z,116
2022-12-22T10:14:03.734Z,106
2022-12-22T10:15:04.145Z,81
2022-12-22T10:16:04.663Z,87
2022-12-22T10:17:03.742Z,76
2022-12-22T10:18:03.878Z,90
2022-12-22T10:19:04.004Z,93
2022-12-22T10:20:04.272Z,92
2022-12-22T10:21:04.339Z,104
2022-12-22T10:22:03.759Z,94
2022-12-22T10:23:04.453Z,96
2022-12-22T10:24:04.716Z,104
2022-12-22T10:25:04.103Z,97
2022-12-22T10:26:29.665Z,111
2022-12-22T10:27:03.745Z,113
2022-12-22T10:28:03.721Z,123
2022-12-22T10:29:03.761Z,111
2022-12-22T10:30:03.765Z,119
2022-12-22T10:31:03.999Z,151
2022-12-22T10:32:03.899Z,137
2022-12-22T10:33:03.763Z,181
2022-12-22T10:34:04.151Z,231
2022-12-22T10:35:04.431Z,221
2022-12-22T10:36:04.003Z,119
2022-12-22T10:37:03.719Z,130
2022-12-22T10:38:04.203Z,123
2022-12-22T10:39:03.756Z,124
2022-12-22T10:40:04.296Z,129
2022-12-22T10:41:04.374Z,140
2022-12-22T10:42:03.763Z,124
2022-12-22T10:43:03.718Z,137
2022-12-22T10:44:03.963Z,140
2022-12-22T10:45:04.116Z,140
2022-12-22T10:46:03.906Z,122
2022-12-22T10:47:03.733Z,127
2022-12-22T10:48:04.221Z,127
2022-12-22T10:49:03.757Z,133
2022-12-22T10:50:03.739Z,115
2022-12-22T10:51:03.722Z,121
2022-12-22T10:52:03.730Z,129
2022-12-22T10:53:03.789Z,118
2022-12-22T10:54:03.814Z,124
2022-12-22T10:55:03.821Z,120
2022-12-22T10:56:04.256Z,128
2022-12-22T10:57:04.517Z,133
2022-12-22T10:58:05.707Z,119
2022-12-22T10:59:04.276Z,119
2022-12-22T11:00:04.406Z,123
2022-12-22T11:01:04.302Z,105
2022-12-22T11:02:03.915Z,109
2022-12-22T11:03:04.061Z,105
2022-12-22T11:04:03.808Z,100
2022-12-22T11:05:03.761Z,96
2022-12-22T11:06:04.388Z,111
2022-12-22T11:07:04.438Z,100
2022-12-22T11:08:03.743Z,97
2022-12-22T11:09:31.213Z,100
2022-12-22T11:10:04.598Z,104
2022-12-22T11:11:04.192Z,102
2022-12-22T11:12:03.708Z,104
2022-12-22T11:13:03.708Z,100
2022-12-22T11:14:04.177Z,104
2022-12-22T11:15:04.439Z,103
2022-12-22T11:16:03.759Z,108
2022-12-22T11:17:04.266Z,113
2022-12-22T11:18:04.260Z,120
2022-12-22T11:19:04.420Z,107
2022-12-22T11:20:04.267Z,112
2022-12-22T11:21:04.267Z,116
2022-12-22T11:22:04.461Z,114
2022-12-22T11:23:03.726Z,96
2022-12-22T11:24:03.815Z,92
2022-12-22T11:25:03.750Z,91
2022-12-22T11:26:03.708Z,92
2022-12-22T11:27:04.332Z,89
2022-12-22T11:28:03.700Z,94
2022-12-22T11:29:03.722Z,99
2022-12-22T11:30:04.083Z,95
2022-12-22T11:31:04.290Z,89
2022-12-22T11:32:03.800Z,89
2022-12-22T11:33:04.742Z,81
2022-12-22T11:34:03.765Z,89
2022-12-22T11:35:04.560Z,84
2022-12-22T11:36:03.773Z,93
2022-12-22T11:37:03.727Z,95
2022-12-22T11:38:03.714Z,84
2022-12-22T11:39:04.278Z,84
2022-12-22T11:40:03.709Z,78
2022-12-22T11:41:04.303Z,72
2022-12-22T11:42:03.754Z,80
2022-12-22T11:43:04.296Z,75
2022-12-22T11:44:04.495Z,73
2022-12-22T11:45:03.908Z,64
2022-12-22T11:46:03.991Z,70
2022-12-22T11:47:04.361Z,72
2022-12-22T11:48:04.259Z,73
2022-12-22T11:49:03.758Z,73
2022-12-22T11:50:58.746Z,66
2022-12-22T11:51:09.718Z,75
2022-12-22T11:52:03.720Z,63
2022-12-22T11:53:03.712Z,73
2022-12-22T11:54:10.325Z,68
2022-12-22T11:55:04.495Z,67
2022-12-22T11:56:03.708Z,60
2022-12-22T11:57:03.790Z,71
2022-12-22T11:58:03.721Z,77
2022-12-22T11:59:04.312Z,67
2022-12-22T12:00:04.158Z,64
2022-12-22T12:01:16.263Z,70
2022-12-22T12:02:04.343Z,65
2022-12-22T12:03:04.134Z,61
2022-12-22T12:04:04.600Z,61
2022-12-22T12:05:03.711Z,64
2022-12-22T12:06:03.714Z,57
2022-12-22T12:07:03.753Z,55
2022-12-22T12:08:04.677Z,62
2022-12-22T12:09:03.994Z,53
2022-12-22T12:10:03.709Z,57
2022-12-22T12:11:03.709Z,61
2022-12-22T12:12:04.524Z,58
2022-12-22T12:13:03.731Z,52
2022-12-22T12:14:04.060Z,49
2022-12-22T12:15:03.719Z,49
2022-12-22T12:16:03.912Z,56
2022-12-22T12:17:04.454Z,54
2022-12-22T12:18:04.053Z,46
2022-12-22T12:19:04.327Z,46
2022-12-22T12:20:03.721Z,50
2022-12-22T12:21:03.716Z,52
2022-12-22T12:22:04.267Z,53
2022-12-22T12:23:04.091Z,50
2022-12-22T12:24:05.381Z,46
2022-12-22T12:25:04.679Z,48
2022-12-22T12:26:04.716Z,48
2022-12-22T12:27:04.059Z,55
2022-12-22T12:28:03.703Z,47
2022-12-22T12:29:04.519Z,45
2022-12-22T12:30:37.100Z,46
2022-12-22T12:31:04.363Z,46
2022-12-22T12:32:04.229Z,42
2022-12-22T12:33:03.736Z,43
2022-12-22T12:34:04.273Z,44
2022-12-22T12:35:04.416Z,39
2022-12-22T12:36:04.424Z,42
2022-12-22T12:37:04.027Z,38
2022-12-22T12:38:03.889Z,37
2022-12-22T12:39:08.740Z,38
2022-12-22T12:40:03.930Z,34
2022-12-22T12:41:04.381Z,34
2022-12-22T12:42:04.377Z,31
2022-12-22T12:43:04.069Z,30
2022-12-22T12:44:04.251Z,30
2022-12-22T12:45:03.706Z,29
2022-12-22T12:46:03.734Z,31
2022-12-22T12:47:04.380Z,29
2022-12-22T12:48:04.086Z,30
2022-12-22T12:49:02.515Z,32
2022-12-22T12:50:03.857Z,30
2022-12-22T12:51:04.312Z,30
2022-12-22T12:52:03.741Z,26
2022-12-22T12:53:04.018Z,26
2022-12-22T12:54:04.074Z,23
2022-12-22T12:55:04.458Z,23
2022-12-22T12:56:03.732Z,24
2022-12-22T12:57:03.739Z,25
2022-12-22T12:58:04.138Z,25
2022-12-22T12:59:03.788Z,24
2022-12-22T13:00:03.771Z,26
2022-12-22T13:01:04.517Z,24
2022-12-22T13:02:03.962Z,25
2022-12-22T13:03:03.844Z,28
2022-12-22T13:04:05.469Z,26
2022-12-22T13:05:03.950Z,22
2022-12-22T13:06:03.720Z,21
2022-12-22T13:07:03.968Z,20
2022-12-22T13:08:04.256Z,21
2022-12-22T13:09:39.764Z,20
2022-12-22T13:10:04.289Z,21
2022-12-22T13:11:03.043Z,20
2022-12-22T13:12:13.082Z,18
2022-12-22T13:13:03.701Z,24
2022-12-22T13:14:04.585Z,21
2022-12-22T13:15:03.711Z,19
2022-12-22T13:16:04.664Z,20
2022-12-22T13:17:04.268Z,19
2022-12-22T13:18:03.813Z,21
2022-12-22T13:19:04.034Z,20
2022-12-22T13:20:03.720Z,20
2022-12-22T13:21:34.512Z,18
2022-12-22T13:22:03.961Z,21
2022-12-22T13:23:03.711Z,23
2022-12-22T13:24:24.169Z,26
2022-12-22T13:25:04.099Z,20
2022-12-22T13:26:03.885Z,25
2022-12-22T13:27:03.739Z,25
2022-12-22T13:28:04.015Z,24
2022-12-22T13:29:03.735Z,26
2022-12-22T13:30:06.736Z,23
2022-12-22T13:31:03.830Z,28
2022-12-22T13:32:04.144Z,25
2022-12-22T13:33:04.602Z,26
2022-12-22T13:34:04.610Z,21
2022-12-22T13:35:30.256Z,31
2022-12-22T13:36:03.861Z,22
2022-12-22T13:37:04.517Z,24
2022-12-22T13:38:04.449Z,28
2022-12-22T13:39:03.702Z,29
2022-12-22T13:40:03.752Z,32
2022-12-22T13:41:03.703Z,34
2022-12-22T13:42:04.152Z,28
2022-12-22T13:43:04.615Z,27
2022-12-22T13:44:04.131Z,25
2022-12-22T13:45:03.732Z,26
2022-12-22T13:46:04.063Z,25
2022-12-22T13:47:03.883Z,28
2022-12-22T13:48:03.704Z,27
2022-12-22T13:49:03.703Z,29
2022-12-22T13:50:09.292Z,30
2022-12-22T13:51:04.469Z,31
2022-12-22T13:52:05.681Z,29
2022-12-22T13:53:04.328Z,27
2022-12-22T13:54:09.914Z,26
2022-12-22T13:55:03.793Z,21
2022-12-22T13:56:04.028Z,20
2022-12-22T13:57:04.525Z,21
2022-12-22T13:58:04.614Z,27
2022-12-22T13:59:03.768Z,30
2022-12-22T14:00:03.760Z,31
2022-12-22T14:01:03.847Z,27
2022-12-22T14:02:04.439Z,26
2022-12-22T14:03:04.719Z,22
2022-12-22T14:04:04.293Z,22
2022-12-22T14:05:04.137Z,22
2022-12-22T14:06:04.625Z,20
2022-12-22T14:07:04.338Z,21
2022-12-22T14:08:03.743Z,21
2022-12-22T14:09:03.715Z,19
2022-12-22T14:10:04.275Z,20
2022-12-22T14:11:03.740Z,21
2022-12-22T14:12:03.704Z,18
2022-12-22T14:13:04.453Z,19
2022-12-22T14:14:03.723Z,19
2022-12-22T14:15:03.752Z,20
2022-12-22T14:16:04.337Z,18
2022-12-22T14:17:03.744Z,19
2022-12-22T14:18:02.523Z,17
2022-12-22T14:19:03.850Z,19
2022-12-22T14:20:03.800Z,18
2022-12-22T14:21:03.693Z,15